sensor_id;sensor_type;location;lat;lon;timestamp;P1;durP1;ratioP1;P2;durP2;ratioP2
9370;SDS011;4725;48.384;8.984;2023-10-19T00:00:30;7.47;;;4.80;;
9370;SDS011;4725;48.384;8.984;2023-10-19T00:02:58;6.70;;;4.70;;
9370;SDS011;4725;48.384;8.984;2023-10-19T00:05:27;8.97;;;4.90;;
9370;SDS011;4725;48.384;8.984;2023-10-19T00:07:54;8.80;;;4.70;;
9370;SDS011;4725;48.384;8.984;2023-10-19T00:10:24;6.53;;;4.07;;
9370;SDS011;4725;48.384;8.984;2023-10-19T00:12:54;4.73;;;3.97;;
9370;SDS011;4725;48.384;8.984;2023-10-19T00:15:25;5.10;;;4.17;;
9370;SDS011;4725;48.384;8.984;2023-10-19T00:17:56;6.27;;;3.43;;
9370;SDS011;4725;48.384;8.984;2023-10-19T00:20:24;5.87;;;3.67;;
9370;SDS011;4725;48.384;8.984;2023-10-19T00:23:02;7.40;;;3.40;;
9370;SDS011;4725;48.384;8.984;2023-10-19T00:25:32;7.63;;;3.23;;
9370;SDS011;4725;48.384;8.984;2023-10-19T00:27:59;5.13;;;2.90;;
9370;SDS011;4725;48.384;8.984;2023-10-19T00:30:29;7.27;;;3.63;;
9370;SDS011;4725;48.384;8.984;2023-10-19T00:32:57;6.83;;;3.20;;
9370;SDS011;4725;48.384;8.984;2023-10-19T00:35:28;4.97;;;3.23;;
9370;SDS011;4725;48.384;8.984;2023-10-19T00:37:59;7.70;;;3.47;;
9370;SDS011;4725;48.384;8.984;2023-10-19T00:40:51;8.80;;;3.37;;
9370;SDS011;4725;48.384;8.984;2023-10-19T00:43:28;7.50;;;2.87;;
9370;SDS011;4725;48.384;8.984;2023-10-19T00:45:58;7.03;;;3.30;;
9370;SDS011;4725;48.384;8.984;2023-10-19T00:48:26;5.23;;;3.13;;
9370;SDS011;4725;48.384;8.984;2023-10-19T00:50:54;4.17;;;3.00;;
9370;SDS011;4725;48.384;8.984;2023-10-19T00:53:32;5.00;;;3.13;;
9370;SDS011;4725;48.384;8.984;2023-10-19T00:56:02;3.83;;;2.93;;
9370;SDS011;4725;48.384;8.984;2023-10-19T00:58:31;6.07;;;3.07;;
9370;SDS011;4725;48.384;8.984;2023-10-19T01:01:01;6.80;;;3.70;;
9370;SDS011;4725;48.384;8.984;2023-10-19T01:03:32;6.13;;;3.00;;
9370;SDS011;4725;48.384;8.984;2023-10-19T01:06:02;7.10;;;3.00;;
9370;SDS011;4725;48.384;8.984;2023-10-19T01:08:35;6.57;;;3.30;;
9370;SDS011;4725;48.384;8.984;2023-10-19T01:11:08;5.50;;;3.07;;
9370;SDS011;4725;48.384;8.984;2023-10-19T01:13:37;4.80;;;3.20;;
9370;SDS011;4725;48.384;8.984;2023-10-19T01:16:11;7.00;;;2.83;;
9370;SDS011;4725;48.384;8.984;2023-10-19T01:18:45;3.17;;;2.17;;
9370;SDS011;4725;48.384;8.984;2023-10-19T01:21:13;4.63;;;2.83;;
9370;SDS011;4725;48.384;8.984;2023-10-19T01:23:45;6.93;;;2.60;;
9370;SDS011;4725;48.384;8.984;2023-10-19T01:26:13;4.37;;;2.57;;
9370;SDS011;4725;48.384;8.984;2023-10-19T01:28:43;10.70;;;3.00;;
9370;SDS011;4725;48.384;8.984;2023-10-19T01:31:13;3.30;;;2.53;;
9370;SDS011;4725;48.384;8.984;2023-10-19T01:33:41;6.30;;;2.80;;
9370;SDS011;4725;48.384;8.984;2023-10-19T01:36:09;4.67;;;2.60;;
9370;SDS011;4725;48.384;8.984;2023-10-19T01:38:37;7.17;;;3.03;;
9370;SDS011;4725;48.384;8.984;2023-10-19T01:41:05;5.37;;;3.20;;
9370;SDS011;4725;48.384;8.984;2023-10-19T01:43:39;7.20;;;3.00;;
9370;SDS011;4725;48.384;8.984;2023-10-19T01:46:05;7.37;;;2.93;;
9370;SDS011;4725;48.384;8.984;2023-10-19T01:48:37;5.93;;;2.60;;
9370;SDS011;4725;48.384;8.984;2023-10-19T01:51:05;5.90;;;3.33;;
9370;SDS011;4725;48.384;8.984;2023-10-19T01:53:35;5.00;;;2.50;;
9370;SDS011;4725;48.384;8.984;2023-10-19T01:56:02;5.17;;;2.60;;
9370;SDS011;4725;48.384;8.984;2023-10-19T01:58:32;8.80;;;3.10;;
9370;SDS011;4725;48.384;8.984;2023-10-19T02:01:01;8.03;;;2.43;;
9370;SDS011;4725;48.384;8.984;2023-10-19T02:03:33;5.70;;;3.27;;
9370;SDS011;4725;48.384;8.984;2023-10-19T02:06:00;4.77;;;2.80;;
9370;SDS011;4725;48.384;8.984;2023-10-19T02:08:35;5.33;;;3.17;;
9370;SDS011;4725;48.384;8.984;2023-10-19T02:11:03;5.67;;;2.40;;
9370;SDS011;4725;48.384;8.984;2023-10-19T02:13:40;6.20;;;2.70;;
9370;SDS011;4725;48.384;8.984;2023-10-19T02:16:06;4.60;;;3.10;;
9370;SDS011;4725;48.384;8.984;2023-10-19T02:18:34;14.27;;;2.80;;
9370;SDS011;4725;48.384;8.984;2023-10-19T02:21:00;4.87;;;2.40;;
9370;SDS011;4725;48.384;8.984;2023-10-19T02:23:31;6.17;;;2.97;;
9370;SDS011;4725;48.384;8.984;2023-10-19T02:26:00;8.20;;;2.53;;
9370;SDS011;4725;48.384;8.984;2023-10-19T02:28:28;7.07;;;2.73;;
9370;SDS011;4725;48.384;8.984;2023-10-19T02:31:03;5.87;;;2.90;;
9370;SDS011;4725;48.384;8.984;2023-10-19T02:33:40;6.40;;;2.97;;
9370;SDS011;4725;48.384;8.984;2023-10-19T02:36:10;3.83;;;2.53;;
9370;SDS011;4725;48.384;8.984;2023-10-19T02:38:38;5.23;;;2.80;;
9370;SDS011;4725;48.384;8.984;2023-10-19T02:41:06;4.67;;;3.07;;
9370;SDS011;4725;48.384;8.984;2023-10-19T02:43:34;5.63;;;3.00;;
9370;SDS011;4725;48.384;8.984;2023-10-19T02:46:03;5.90;;;3.07;;
9370;SDS011;4725;48.384;8.984;2023-10-19T02:48:29;6.67;;;2.80;;
9370;SDS011;4725;48.384;8.984;2023-10-19T02:50:57;4.73;;;2.90;;
9370;SDS011;4725;48.384;8.984;2023-10-19T02:53:31;4.67;;;2.80;;
9370;SDS011;4725;48.384;8.984;2023-10-19T02:55:59;5.13;;;2.77;;
9370;SDS011;4725;48.384;8.984;2023-10-19T02:58:34;8.17;;;3.03;;
9370;SDS011;4725;48.384;8.984;2023-10-19T03:01:01;4.43;;;3.20;;
9370;SDS011;4725;48.384;8.984;2023-10-19T03:03:37;7.57;;;3.50;;
9370;SDS011;4725;48.384;8.984;2023-10-19T03:06:04;8.10;;;3.87;;
9370;SDS011;4725;48.384;8.984;2023-10-19T03:08:31;4.70;;;3.30;;
9370;SDS011;4725;48.384;8.984;2023-10-19T03:11:00;4.13;;;2.93;;
9370;SDS011;4725;48.384;8.984;2023-10-19T03:13:29;8.27;;;3.33;;
9370;SDS011;4725;48.384;8.984;2023-10-19T03:15:57;6.23;;;3.30;;
9370;SDS011;4725;48.384;8.984;2023-10-19T03:18:25;4.50;;;3.77;;
9370;SDS011;4725;48.384;8.984;2023-10-19T03:20:53;4.37;;;2.93;;
9370;SDS011;4725;48.384;8.984;2023-10-19T03:23:19;7.20;;;3.80;;
9370;SDS011;4725;48.384;8.984;2023-10-19T03:25:52;7.17;;;4.00;;
9370;SDS011;4725;48.384;8.984;2023-10-19T03:28:37;4.23;;;3.07;;
9370;SDS011;4725;48.384;8.984;2023-10-19T03:31:05;7.50;;;3.93;;
9370;SDS011;4725;48.384;8.984;2023-10-19T03:33:34;5.50;;;3.23;;
9370;SDS011;4725;48.384;8.984;2023-10-19T03:36:05;7.20;;;3.83;;
9370;SDS011;4725;48.384;8.984;2023-10-19T03:38:38;8.57;;;5.40;;
9370;SDS011;4725;48.384;8.984;2023-10-19T03:41:05;5.07;;;4.57;;
9370;SDS011;4725;48.384;8.984;2023-10-19T03:43:34;7.27;;;4.27;;
9370;SDS011;4725;48.384;8.984;2023-10-19T03:46:05;8.77;;;3.83;;
9370;SDS011;4725;48.384;8.984;2023-10-19T03:48:46;6.23;;;3.50;;
9370;SDS011;4725;48.384;8.984;2023-10-19T03:51:13;7.10;;;3.63;;
9370;SDS011;4725;48.384;8.984;2023-10-19T03:53:42;4.70;;;3.60;;
9370;SDS011;4725;48.384;8.984;2023-10-19T03:56:19;6.53;;;3.83;;
9370;SDS011;4725;48.384;8.984;2023-10-19T03:58:46;6.70;;;3.50;;
9370;SDS011;4725;48.384;8.984;2023-10-19T04:01:16;3.90;;;3.13;;
9370;SDS011;4725;48.384;8.984;2023-10-19T04:03:44;5.90;;;3.60;;
9370;SDS011;4725;48.384;8.984;2023-10-19T04:06:14;6.27;;;3.20;;
9370;SDS011;4725;48.384;8.984;2023-10-19T04:08:41;4.73;;;3.23;;
9370;SDS011;4725;48.384;8.984;2023-10-19T04:11:10;5.13;;;3.07;;
9370;SDS011;4725;48.384;8.984;2023-10-19T04:13:46;7.77;;;3.67;;
9370;SDS011;4725;48.384;8.984;2023-10-19T04:16:18;5.30;;;3.17;;
9370;SDS011;4725;48.384;8.984;2023-10-19T04:18:46;4.83;;;3.57;;
9370;SDS011;4725;48.384;8.984;2023-10-19T04:21:15;9.57;;;4.00;;
9370;SDS011;4725;48.384;8.984;2023-10-19T04:23:42;8.40;;;3.73;;
9370;SDS011;4725;48.384;8.984;2023-10-19T04:26:11;7.07;;;3.90;;
9370;SDS011;4725;48.384;8.984;2023-10-19T04:28:39;7.27;;;3.73;;
9370;SDS011;4725;48.384;8.984;2023-10-19T04:31:14;9.43;;;4.00;;
9370;SDS011;4725;48.384;8.984;2023-10-19T04:33:41;10.40;;;4.40;;
9370;SDS011;4725;48.384;8.984;2023-10-19T04:36:12;6.90;;;3.97;;
9370;SDS011;4725;48.384;8.984;2023-10-19T04:38:39;7.27;;;3.90;;
9370;SDS011;4725;48.384;8.984;2023-10-19T04:41:07;7.57;;;3.93;;
9370;SDS011;4725;48.384;8.984;2023-10-19T04:43:34;15.50;;;4.87;;
9370;SDS011;4725;48.384;8.984;2023-10-19T04:46:08;6.63;;;4.17;;
9370;SDS011;4725;48.384;8.984;2023-10-19T04:48:37;8.83;;;4.20;;
9370;SDS011;4725;48.384;8.984;2023-10-19T04:51:07;8.10;;;4.70;;
9370;SDS011;4725;48.384;8.984;2023-10-19T04:53:35;4.87;;;3.80;;
9370;SDS011;4725;48.384;8.984;2023-10-19T04:56:03;8.07;;;3.90;;
9370;SDS011;4725;48.384;8.984;2023-10-19T04:58:33;6.23;;;4.60;;
9370;SDS011;4725;48.384;8.984;2023-10-19T05:01:01;5.43;;;3.90;;
9370;SDS011;4725;48.384;8.984;2023-10-19T05:03:28;5.07;;;3.50;;
9370;SDS011;4725;48.384;8.984;2023-10-19T05:05:55;8.23;;;6.60;;
9370;SDS011;4725;48.384;8.984;2023-10-19T05:08:22;8.53;;;5.37;;
9370;SDS011;4725;48.384;8.984;2023-10-19T05:10:53;6.00;;;3.10;;
9370;SDS011;4725;48.384;8.984;2023-10-19T05:13:20;6.43;;;3.37;;
9370;SDS011;4725;48.384;8.984;2023-10-19T05:15:48;4.50;;;3.00;;
9370;SDS011;4725;48.384;8.984;2023-10-19T05:18:15;5.50;;;3.67;;
9370;SDS011;4725;48.384;8.984;2023-10-19T05:20:41;6.07;;;3.30;;
9370;SDS011;4725;48.384;8.984;2023-10-19T05:23:08;5.63;;;3.10;;
9370;SDS011;4725;48.384;8.984;2023-10-19T05:25:35;4.83;;;3.17;;
9370;SDS011;4725;48.384;8.984;2023-10-19T05:28:05;6.50;;;3.43;;
9370;SDS011;4725;48.384;8.984;2023-10-19T05:30:32;7.00;;;3.95;;
9370;SDS011;4725;48.384;8.984;2023-10-19T05:32:59;8.47;;;3.30;;
9370;SDS011;4725;48.384;8.984;2023-10-19T05:35:28;4.33;;;3.13;;
9370;SDS011;4725;48.384;8.984;2023-10-19T05:37:55;6.07;;;3.70;;
9370;SDS011;4725;48.384;8.984;2023-10-19T05:40:23;4.57;;;3.45;;
9370;SDS011;4725;48.384;8.984;2023-10-19T05:42:54;6.63;;;3.80;;
9370;SDS011;4725;48.384;8.984;2023-10-19T05:45:23;3.93;;;3.10;;
9370;SDS011;4725;48.384;8.984;2023-10-19T05:47:51;4.40;;;3.20;;
9370;SDS011;4725;48.384;8.984;2023-10-19T05:50:18;4.53;;;3.70;;
9370;SDS011;4725;48.384;8.984;2023-10-19T05:52:45;3.80;;;2.93;;
9370;SDS011;4725;48.384;8.984;2023-10-19T05:55:13;8.37;;;3.53;;
9370;SDS011;4725;48.384;8.984;2023-10-19T05:57:40;8.57;;;6.53;;
9370;SDS011;4725;48.384;8.984;2023-10-19T06:00:08;6.63;;;5.03;;
9370;SDS011;4725;48.384;8.984;2023-10-19T06:02:43;5.77;;;3.90;;
9370;SDS011;4725;48.384;8.984;2023-10-19T06:05:12;5.47;;;3.20;;
9370;SDS011;4725;48.384;8.984;2023-10-19T06:07:40;4.90;;;2.87;;
9370;SDS011;4725;48.384;8.984;2023-10-19T06:10:07;4.93;;;2.93;;
9370;SDS011;4725;48.384;8.984;2023-10-19T06:12:40;2.90;;;2.53;;
9370;SDS011;4725;48.384;8.984;2023-10-19T06:15:08;6.83;;;2.67;;
9370;SDS011;4725;48.384;8.984;2023-10-19T06:17:36;4.13;;;3.50;;
9370;SDS011;4725;48.384;8.984;2023-10-19T06:20:04;4.07;;;3.30;;
9370;SDS011;4725;48.384;8.984;2023-10-19T06:22:32;4.30;;;2.80;;
9370;SDS011;4725;48.384;8.984;2023-10-19T06:25:00;2.97;;;2.20;;
9370;SDS011;4725;48.384;8.984;2023-10-19T06:27:28;5.03;;;2.37;;
9370;SDS011;4725;48.384;8.984;2023-10-19T06:29:56;4.13;;;2.27;;
9370;SDS011;4725;48.384;8.984;2023-10-19T06:32:23;6.13;;;3.50;;
9370;SDS011;4725;48.384;8.984;2023-10-19T06:34:50;6.63;;;2.70;;
9370;SDS011;4725;48.384;8.984;2023-10-19T06:37:18;4.27;;;2.70;;
9370;SDS011;4725;48.384;8.984;2023-10-19T06:39:45;3.53;;;2.13;;
9370;SDS011;4725;48.384;8.984;2023-10-19T06:42:11;3.40;;;1.90;;
9370;SDS011;4725;48.384;8.984;2023-10-19T06:44:40;1.47;;;1.30;;
9370;SDS011;4725;48.384;8.984;2023-10-19T06:47:08;3.10;;;1.10;;
9370;SDS011;4725;48.384;8.984;2023-10-19T06:49:35;3.00;;;1.40;;
9370;SDS011;4725;48.384;8.984;2023-10-19T06:52:02;4.10;;;1.53;;
9370;SDS011;4725;48.384;8.984;2023-10-19T06:54:32;1.77;;;1.17;;
9370;SDS011;4725;48.384;8.984;2023-10-19T06:56:59;5.47;;;2.70;;
9370;SDS011;4725;48.384;8.984;2023-10-19T06:59:28;3.87;;;1.60;;
9370;SDS011;4725;48.384;8.984;2023-10-19T07:01:58;3.13;;;1.40;;
9370;SDS011;4725;48.384;8.984;2023-10-19T07:04:26;1.90;;;1.20;;
9370;SDS011;4725;48.384;8.984;2023-10-19T07:06:53;3.97;;;1.40;;
9370;SDS011;4725;48.384;8.984;2023-10-19T07:09:20;4.20;;;1.30;;
9370;SDS011;4725;48.384;8.984;2023-10-19T07:11:49;1.77;;;1.00;;
9370;SDS011;4725;48.384;8.984;2023-10-19T07:14:18;2.20;;;1.27;;
9370;SDS011;4725;48.384;8.984;2023-10-19T07:16:47;2.40;;;0.87;;
9370;SDS011;4725;48.384;8.984;2023-10-19T07:19:14;1.52;;;1.10;;
9370;SDS011;4725;48.384;8.984;2023-10-19T07:21:41;2.13;;;1.10;;
9370;SDS011;4725;48.384;8.984;2023-10-19T07:24:08;1.20;;;0.90;;
9370;SDS011;4725;48.384;8.984;2023-10-19T07:26:36;1.98;;;1.02;;
9370;SDS011;4725;48.384;8.984;2023-10-19T07:29:10;0.80;;;0.80;;
9370;SDS011;4725;48.384;8.984;2023-10-19T07:31:40;1.02;;;0.93;;
9370;SDS011;4725;48.384;8.984;2023-10-19T07:34:07;2.90;;;1.10;;
9370;SDS011;4725;48.384;8.984;2023-10-19T07:36:38;2.75;;;1.35;;
9370;SDS011;4725;48.384;8.984;2023-10-19T07:39:04;2.30;;;1.27;;
9370;SDS011;4725;48.384;8.984;2023-10-19T07:41:39;2.95;;;1.15;;
9370;SDS011;4725;48.384;8.984;2023-10-19T07:44:06;2.35;;;1.10;;
9370;SDS011;4725;48.384;8.984;2023-10-19T07:46:34;4.38;;;1.25;;
9370;SDS011;4725;48.384;8.984;2023-10-19T07:49:01;1.63;;;1.00;;
9370;SDS011;4725;48.384;8.984;2023-10-19T07:51:28;3.30;;;1.40;;
9370;SDS011;4725;48.384;8.984;2023-10-19T07:53:56;2.92;;;1.45;;
9370;SDS011;4725;48.384;8.984;2023-10-19T07:56:23;4.35;;;1.65;;
9370;SDS011;4725;48.384;8.984;2023-10-19T07:58:50;2.70;;;1.52;;
9370;SDS011;4725;48.384;8.984;2023-10-19T08:01:16;2.45;;;1.20;;
9370;SDS011;4725;48.384;8.984;2023-10-19T08:03:45;3.67;;;1.52;;
9370;SDS011;4725;48.384;8.984;2023-10-19T08:06:11;2.42;;;1.48;;
9370;SDS011;4725;48.384;8.984;2023-10-19T08:08:39;7.40;;;1.65;;
9370;SDS011;4725;48.384;8.984;2023-10-19T08:11:07;4.00;;;1.40;;
9370;SDS011;4725;48.384;8.984;2023-10-19T08:13:34;4.63;;;1.65;;
9370;SDS011;4725;48.384;8.984;2023-10-19T08:16:01;1.95;;;1.50;;
9370;SDS011;4725;48.384;8.984;2023-10-19T08:18:28;3.20;;;1.23;;
9370;SDS011;4725;48.384;8.984;2023-10-19T08:20:58;1.98;;;1.50;;
9370;SDS011;4725;48.384;8.984;2023-10-19T08:23:24;4.03;;;1.63;;
9370;SDS011;4725;48.384;8.984;2023-10-19T08:25:52;3.08;;;1.33;;
9370;SDS011;4725;48.384;8.984;2023-10-19T08:28:19;2.10;;;1.40;;
9370;SDS011;4725;48.384;8.984;2023-10-19T08:30:47;5.22;;;1.58;;
9370;SDS011;4725;48.384;8.984;2023-10-19T08:33:22;1.45;;;1.35;;
9370;SDS011;4725;48.384;8.984;2023-10-19T08:35:51;1.58;;;1.25;;
9370;SDS011;4725;48.384;8.984;2023-10-19T08:38:20;1.33;;;1.20;;
9370;SDS011;4725;48.384;8.984;2023-10-19T08:40:48;2.20;;;1.27;;
9370;SDS011;4725;48.384;8.984;2023-10-19T08:43:15;2.88;;;1.58;;
9370;SDS011;4725;48.384;8.984;2023-10-19T08:45:43;1.20;;;1.10;;
9370;SDS011;4725;48.384;8.984;2023-10-19T08:48:11;3.65;;;1.55;;
9370;SDS011;4725;48.384;8.984;2023-10-19T08:50:38;1.30;;;1.13;;
9370;SDS011;4725;48.384;8.984;2023-10-19T08:53:04;4.65;;;1.45;;
9370;SDS011;4725;48.384;8.984;2023-10-19T08:55:35;1.67;;;1.25;;
9370;SDS011;4725;48.384;8.984;2023-10-19T08:58:02;1.83;;;1.25;;
9370;SDS011;4725;48.384;8.984;2023-10-19T09:00:42;2.22;;;1.20;;
9370;SDS011;4725;48.384;8.984;2023-10-19T09:03:12;1.63;;;1.30;;
9370;SDS011;4725;48.384;8.984;2023-10-19T09:05:41;1.30;;;1.15;;
9370;SDS011;4725;48.384;8.984;2023-10-19T09:08:09;1.10;;;1.00;;
9370;SDS011;4725;48.384;8.984;2023-10-19T09:10:43;1.90;;;0.80;;
9370;SDS011;4725;48.384;8.984;2023-10-19T09:13:11;1.30;;;1.00;;
9370;SDS011;4725;48.384;8.984;2023-10-19T09:15:41;0.88;;;0.88;;
9370;SDS011;4725;48.384;8.984;2023-10-19T09:18:14;1.25;;;0.90;;
9370;SDS011;4725;48.384;8.984;2023-10-19T09:20:43;1.85;;;1.02;;
9370;SDS011;4725;48.384;8.984;2023-10-19T09:23:18;3.03;;;1.15;;
9370;SDS011;4725;48.384;8.984;2023-10-19T09:25:49;2.75;;;1.00;;
9370;SDS011;4725;48.384;8.984;2023-10-19T09:28:18;1.10;;;1.00;;
9370;SDS011;4725;48.384;8.984;2023-10-19T09:30:45;1.83;;;1.02;;
9370;SDS011;4725;48.384;8.984;2023-10-19T09:33:13;1.60;;;1.10;;
9370;SDS011;4725;48.384;8.984;2023-10-19T09:35:43;0.80;;;0.80;;
9370;SDS011;4725;48.384;8.984;2023-10-19T09:38:13;1.38;;;1.27;;
9370;SDS011;4725;48.384;8.984;2023-10-19T09:40:40;0.85;;;0.85;;
9370;SDS011;4725;48.384;8.984;2023-10-19T09:43:08;0.90;;;0.90;;
9370;SDS011;4725;48.384;8.984;2023-10-19T09:45:41;1.75;;;1.10;;
9370;SDS011;4725;48.384;8.984;2023-10-19T09:48:15;5.28;;;1.10;;
9370;SDS011;4725;48.384;8.984;2023-10-19T09:50:44;0.93;;;0.93;;
9370;SDS011;4725;48.384;8.984;2023-10-19T09:53:19;1.25;;;0.80;;
9370;SDS011;4725;48.384;8.984;2023-10-19T09:55:48;1.00;;;0.90;;
9370;SDS011;4725;48.384;8.984;2023-10-19T09:58:19;1.38;;;0.98;;
9370;SDS011;4725;48.384;8.984;2023-10-19T10:00:50;0.75;;;0.75;;
9370;SDS011;4725;48.384;8.984;2023-10-19T10:06:14;1.63;;;0.80;;
9370;SDS011;4725;48.384;8.984;2023-10-19T10:08:42;1.05;;;0.98;;
9370;SDS011;4725;48.384;8.984;2023-10-19T10:11:17;0.95;;;0.90;;
9370;SDS011;4725;48.384;8.984;2023-10-19T10:13:47;4.15;;;1.02;;
9370;SDS011;4725;48.384;8.984;2023-10-19T10:16:17;0.82;;;0.73;;
9370;SDS011;4725;48.384;8.984;2023-10-19T10:18:46;0.60;;;0.60;;
9370;SDS011;4725;48.384;8.984;2023-10-19T10:21:15;0.98;;;0.65;;
9370;SDS011;4725;48.384;8.984;2023-10-19T10:23:46;1.30;;;0.98;;
9370;SDS011;4725;48.384;8.984;2023-10-19T10:26:14;0.80;;;0.80;;
9370;SDS011;4725;48.384;8.984;2023-10-19T10:28:45;1.30;;;0.85;;
9370;SDS011;4725;48.384;8.984;2023-10-19T10:31:14;3.15;;;0.93;;
9370;SDS011;4725;48.384;8.984;2023-10-19T10:33:46;0.68;;;0.68;;
9370;SDS011;4725;48.384;8.984;2023-10-19T10:36:17;0.60;;;0.60;;
9370;SDS011;4725;48.384;8.984;2023-10-19T10:38:44;2.75;;;0.90;;
9370;SDS011;4725;48.384;8.984;2023-10-19T10:41:12;0.90;;;0.90;;
9370;SDS011;4725;48.384;8.984;2023-10-19T10:43:54;0.77;;;0.77;;
9370;SDS011;4725;48.384;8.984;2023-10-19T10:46:22;0.73;;;0.73;;
9370;SDS011;4725;48.384;8.984;2023-10-19T10:48:50;1.33;;;0.80;;
9370;SDS011;4725;48.384;8.984;2023-10-19T10:51:18;1.38;;;0.80;;
9370;SDS011;4725;48.384;8.984;2023-10-19T10:53:47;4.32;;;1.13;;
9370;SDS011;4725;48.384;8.984;2023-10-19T10:56:15;1.30;;;0.90;;
9370;SDS011;4725;48.384;8.984;2023-10-19T10:58:42;1.70;;;1.02;;
9370;SDS011;4725;48.384;8.984;2023-10-19T11:01:11;1.60;;;0.90;;
9370;SDS011;4725;48.384;8.984;2023-10-19T11:03:38;1.65;;;0.93;;
9370;SDS011;4725;48.384;8.984;2023-10-19T11:06:05;4.20;;;1.00;;
9370;SDS011;4725;48.384;8.984;2023-10-19T11:08:34;0.93;;;0.80;;
9370;SDS011;4725;48.384;8.984;2023-10-19T11:11:02;4.15;;;1.25;;
9370;SDS011;4725;48.384;8.984;2023-10-19T11:13:31;1.23;;;0.98;;
9370;SDS011;4725;48.384;8.984;2023-10-19T11:16:02;2.35;;;1.20;;
9370;SDS011;4725;48.384;8.984;2023-10-19T11:18:33;1.92;;;0.93;;
9370;SDS011;4725;48.384;8.984;2023-10-19T11:21:02;0.88;;;0.80;;
9370;SDS011;4725;48.384;8.984;2023-10-19T11:23:35;0.80;;;0.80;;
9370;SDS011;4725;48.384;8.984;2023-10-19T11:26:07;1.15;;;0.88;;
9370;SDS011;4725;48.384;8.984;2023-10-19T11:28:35;0.85;;;0.85;;
9370;SDS011;4725;48.384;8.984;2023-10-19T11:31:11;1.10;;;1.00;;
9370;SDS011;4725;48.384;8.984;2023-10-19T11:33:41;3.72;;;1.02;;
9370;SDS011;4725;48.384;8.984;2023-10-19T11:36:09;1.10;;;0.90;;
9370;SDS011;4725;48.384;8.984;2023-10-19T11:38:38;1.35;;;1.27;;
9370;SDS011;4725;48.384;8.984;2023-10-19T11:41:06;4.22;;;2.40;;
9370;SDS011;4725;48.384;8.984;2023-10-19T11:43:33;3.85;;;2.30;;
9370;SDS011;4725;48.384;8.984;2023-10-19T11:46:00;2.30;;;2.10;;
9370;SDS011;4725;48.384;8.984;2023-10-19T11:48:29;4.55;;;2.42;;
9370;SDS011;4725;48.384;8.984;2023-10-19T11:50:57;3.40;;;2.63;;
9370;SDS011;4725;48.384;8.984;2023-10-19T11:53:24;1.52;;;1.42;;
9370;SDS011;4725;48.384;8.984;2023-10-19T11:55:51;1.55;;;1.25;;
9370;SDS011;4725;48.384;8.984;2023-10-19T11:58:18;2.38;;;1.15;;
9370;SDS011;4725;48.384;8.984;2023-10-19T12:00:45;5.32;;;1.58;;
9370;SDS011;4725;48.384;8.984;2023-10-19T12:03:12;2.60;;;2.05;;
9370;SDS011;4725;48.384;8.984;2023-10-19T12:05:39;2.28;;;2.03;;
9370;SDS011;4725;48.384;8.984;2023-10-19T12:08:08;4.13;;;1.50;;
9370;SDS011;4725;48.384;8.984;2023-10-19T12:10:35;2.13;;;1.80;;
9370;SDS011;4725;48.384;8.984;2023-10-19T12:13:03;2.40;;;1.80;;
9370;SDS011;4725;48.384;8.984;2023-10-19T12:15:31;1.75;;;1.30;;
9370;SDS011;4725;48.384;8.984;2023-10-19T12:17:58;4.03;;;1.05;;
9370;SDS011;4725;48.384;8.984;2023-10-19T12:20:26;2.03;;;1.20;;
9370;SDS011;4725;48.384;8.984;2023-10-19T12:22:56;1.52;;;1.00;;
9370;SDS011;4725;48.384;8.984;2023-10-19T12:25:25;2.42;;;1.20;;
9370;SDS011;4725;48.384;8.984;2023-10-19T12:27:56;5.35;;;1.20;;
9370;SDS011;4725;48.384;8.984;2023-10-19T12:30:25;1.48;;;1.30;;
9370;SDS011;4725;48.384;8.984;2023-10-19T12:32:57;2.47;;;1.30;;
9370;SDS011;4725;48.384;8.984;2023-10-19T12:35:26;2.92;;;1.42;;
9370;SDS011;4725;48.384;8.984;2023-10-19T12:38:07;3.95;;;1.30;;
9370;SDS011;4725;48.384;8.984;2023-10-19T12:40:41;2.13;;;1.48;;
9370;SDS011;4725;48.384;8.984;2023-10-19T12:43:11;4.03;;;1.98;;
9370;SDS011;4725;48.384;8.984;2023-10-19T12:45:38;3.90;;;1.52;;
9370;SDS011;4725;48.384;8.984;2023-10-19T12:48:06;4.32;;;1.52;;
9370;SDS011;4725;48.384;8.984;2023-10-19T12:50:35;2.20;;;1.20;;
9370;SDS011;4725;48.384;8.984;2023-10-19T12:53:03;4.68;;;1.77;;
9370;SDS011;4725;48.384;8.984;2023-10-19T12:55:31;2.55;;;1.27;;
9370;SDS011;4725;48.384;8.984;2023-10-19T12:58:00;2.80;;;1.20;;
9370;SDS011;4725;48.384;8.984;2023-10-19T13:00:33;2.28;;;1.33;;
9370;SDS011;4725;48.384;8.984;2023-10-19T13:03:07;2.30;;;1.50;;
9370;SDS011;4725;48.384;8.984;2023-10-19T13:05:36;4.30;;;1.40;;
9370;SDS011;4725;48.384;8.984;2023-10-19T13:08:05;4.55;;;1.85;;
9370;SDS011;4725;48.384;8.984;2023-10-19T13:10:33;3.00;;;1.58;;
9370;SDS011;4725;48.384;8.984;2023-10-19T13:13:04;3.35;;;1.63;;
9370;SDS011;4725;48.384;8.984;2023-10-19T13:15:32;1.55;;;1.42;;
9370;SDS011;4725;48.384;8.984;2023-10-19T13:18:00;4.45;;;1.40;;
9370;SDS011;4725;48.384;8.984;2023-10-19T13:20:28;2.28;;;1.20;;
9370;SDS011;4725;48.384;8.984;2023-10-19T13:22:59;2.33;;;1.15;;
9370;SDS011;4725;48.384;8.984;2023-10-19T13:25:26;2.20;;;1.17;;
9370;SDS011;4725;48.384;8.984;2023-10-19T13:28:08;5.22;;;1.55;;
9370;SDS011;4725;48.384;8.984;2023-10-19T13:30:36;1.60;;;1.50;;
9370;SDS011;4725;48.384;8.984;2023-10-19T13:33:04;2.97;;;1.48;;
9370;SDS011;4725;48.384;8.984;2023-10-19T13:35:31;2.97;;;1.33;;
9370;SDS011;4725;48.384;8.984;2023-10-19T13:37:58;3.35;;;1.33;;
9370;SDS011;4725;48.384;8.984;2023-10-19T13:40:26;3.53;;;1.45;;
9370;SDS011;4725;48.384;8.984;2023-10-19T13:42:55;6.32;;;1.80;;
9370;SDS011;4725;48.384;8.984;2023-10-19T13:45:23;2.08;;;1.50;;
9370;SDS011;4725;48.384;8.984;2023-10-19T13:47:50;1.52;;;1.42;;
9370;SDS011;4725;48.384;8.984;2023-10-19T13:50:20;1.90;;;1.63;;
9370;SDS011;4725;48.384;8.984;2023-10-19T13:52:51;3.38;;;1.30;;
9370;SDS011;4725;48.384;8.984;2023-10-19T13:55:19;1.20;;;1.10;;
9370;SDS011;4725;48.384;8.984;2023-10-19T13:57:46;1.33;;;1.10;;
9370;SDS011;4725;48.384;8.984;2023-10-19T14:00:14;2.20;;;1.40;;
9370;SDS011;4725;48.384;8.984;2023-10-19T14:02:50;1.30;;;1.05;;
9370;SDS011;4725;48.384;8.984;2023-10-19T14:05:17;1.90;;;1.42;;
9370;SDS011;4725;48.384;8.984;2023-10-19T14:07:45;1.55;;;1.38;;
9370;SDS011;4725;48.384;8.984;2023-10-19T14:10:12;1.50;;;1.30;;
9370;SDS011;4725;48.384;8.984;2023-10-19T14:12:41;2.38;;;1.70;;
9370;SDS011;4725;48.384;8.984;2023-10-19T14:15:12;2.13;;;1.58;;
9370;SDS011;4725;48.384;8.984;2023-10-19T14:17:40;2.60;;;1.10;;
9370;SDS011;4725;48.384;8.984;2023-10-19T14:20:09;1.95;;;1.75;;
9370;SDS011;4725;48.384;8.984;2023-10-19T14:22:41;1.58;;;1.33;;
9370;SDS011;4725;48.384;8.984;2023-10-19T14:25:09;3.53;;;2.65;;
9370;SDS011;4725;48.384;8.984;2023-10-19T14:27:41;1.65;;;1.55;;
9370;SDS011;4725;48.384;8.984;2023-10-19T14:30:09;2.53;;;1.40;;
9370;SDS011;4725;48.384;8.984;2023-10-19T14:32:38;3.53;;;1.80;;
9370;SDS011;4725;48.384;8.984;2023-10-19T14:35:07;2.08;;;1.42;;
9370;SDS011;4725;48.384;8.984;2023-10-19T14:37:38;3.78;;;1.30;;
9370;SDS011;4725;48.384;8.984;2023-10-19T14:40:07;1.38;;;1.10;;
9370;SDS011;4725;48.384;8.984;2023-10-19T14:42:35;2.65;;;1.23;;
9370;SDS011;4725;48.384;8.984;2023-10-19T14:45:04;1.33;;;1.10;;
9370;SDS011;4725;48.384;8.984;2023-10-19T14:47:34;3.17;;;1.50;;
9370;SDS011;4725;48.384;8.984;2023-10-19T14:50:01;4.65;;;1.92;;
9370;SDS011;4725;48.384;8.984;2023-10-19T14:52:29;3.67;;;1.85;;
9370;SDS011;4725;48.384;8.984;2023-10-19T14:54:57;3.55;;;1.48;;
9370;SDS011;4725;48.384;8.984;2023-10-19T14:57:24;2.70;;;1.10;;
9370;SDS011;4725;48.384;8.984;2023-10-19T14:59:52;2.83;;;1.30;;
9370;SDS011;4725;48.384;8.984;2023-10-19T15:02:18;1.55;;;1.20;;
9370;SDS011;4725;48.384;8.984;2023-10-19T15:04:48;1.00;;;1.00;;
9370;SDS011;4725;48.384;8.984;2023-10-19T15:07:15;2.55;;;1.60;;
9370;SDS011;4725;48.384;8.984;2023-10-19T15:09:44;2.20;;;1.00;;
9370;SDS011;4725;48.384;8.984;2023-10-19T15:12:12;2.38;;;1.30;;
9370;SDS011;4725;48.384;8.984;2023-10-19T15:14:39;3.67;;;2.85;;
9370;SDS011;4725;48.384;8.984;2023-10-19T15:17:08;3.25;;;1.35;;
9370;SDS011;4725;48.384;8.984;2023-10-19T15:19:36;3.20;;;1.90;;
9370;SDS011;4725;48.384;8.984;2023-10-19T15:22:04;3.65;;;1.45;;
9370;SDS011;4725;48.384;8.984;2023-10-19T15:24:31;1.20;;;1.10;;
9370;SDS011;4725;48.384;8.984;2023-10-19T15:26:59;4.75;;;1.00;;
9370;SDS011;4725;48.384;8.984;2023-10-19T15:29:26;3.80;;;1.20;;